Time;durP1;ratioP1;P1;durP2;ratioP2;P2;SDS_P1;SDS_P2;PMS_P1;PMS_P2;Temp;Humidity;BMP_temperature;BMP_pressure;BME280_temperature;BME280_humidity;BME280_pressure;Samples;Min_cycle;Max_cycle;Signal;HPM_P1;HPM_P2
2023/06/27 00:00:20;;;;;;;3.38;1.90;;;16.00;99.90;;;;;;5068423;28;20033;-61
2023/06/27 00:02:53;;;;;;;5.70;2.40;;;15.90;99.90;;;;;;5063675;28;20083;-61
2023/06/27 00:05:18;;;;;;;4.53;2.42;;;15.80;99.90;;;;;;5048489;28;20087;-61
2023/06/27 00:07:44;;;;;;;2.92;1.70;;;15.80;99.90;;;;;;5049192;28;20071;-61
2023/06/27 00:10:10;;;;;;;2.88;1.90;;;15.90;99.90;;;;;;5066225;28;20447;-61
2023/06/27 00:12:37;;;;;;;4.72;2.25;;;15.80;99.90;;;;;;5068878;28;20029;-61
2023/06/27 00:15:05;;;;;;;4.80;1.90;;;15.80;99.90;;;;;;5067836;28;20093;-61
2023/06/27 00:17:33;;;;;;;3.38;2.10;;;15.80;99.90;;;;;;5068897;28;20036;-61
2023/06/27 00:19:59;;;;;;;3.92;2.25;;;15.70;99.90;;;;;;5055695;28;20081;-61
2023/06/27 00:22:26;;;;;;;3.50;2.10;;;15.60;99.90;;;;;;5068246;28;20043;-61
2023/06/27 00:24:52;;;;;;;5.57;2.40;;;15.60;99.90;;;;;;5067100;28;20123;-61
2023/06/27 00:27:18;;;;;;;3.75;2.17;;;15.60;99.90;;;;;;5068119;28;20140;-61
2023/06/27 00:29:43;;;;;;;6.53;2.20;;;15.60;99.90;;;;;;5068441;28;20111;-61
2023/06/27 00:32:09;;;;;;;5.22;2.20;;;15.70;99.90;;;;;;5067706;28;20024;-60
2023/06/27 00:34:35;;;;;;;6.47;2.40;;;15.60;99.90;;;;;;5068468;28;20044;-61
2023/06/27 00:37:00;;;;;;;4.38;2.45;;;15.60;99.90;;;;;;5067372;28;20052;-61
2023/06/27 00:39:28;;;;;;;10.88;2.63;;;15.60;99.90;;;;;;5067097;28;20203;-61
2023/06/27 00:41:54;;;;;;;4.40;2.42;;;15.60;99.90;;;;;;5068151;28;20385;-61
2023/06/27 00:44:20;;;;;;;6.20;2.50;;;15.60;99.90;;;;;;5067644;28;20039;-61
2023/06/27 00:46:50;;;;;;;5.88;2.40;;;15.60;99.90;;;;;;5067069;28;20520;-61
2023/06/27 00:49:17;;;;;;;3.72;2.30;;;15.50;99.90;;;;;;5067927;28;20696;-61
2023/06/27 00:51:46;;;;;;;3.75;2.40;;;15.50;99.90;;;;;;5068274;28;20048;-61
2023/06/27 00:54:12;;;;;;;5.78;2.33;;;15.50;99.90;;;;;;5067685;28;20074;-61
2023/06/27 00:56:38;;;;;;;6.80;2.40;;;15.50;99.90;;;;;;5067841;28;20032;-61
2023/06/27 00:59:05;;;;;;;4.75;2.70;;;15.40;99.90;;;;;;5066808;28;20024;-61
2023/06/27 01:01:31;;;;;;;6.57;2.40;;;15.40;99.90;;;;;;5067788;28;20047;-61
2023/06/27 01:03:57;;;;;;;6.65;2.70;;;15.40;99.90;;;;;;5067872;28;20463;-61
2023/06/27 01:06:45;;;;;;;5.40;2.58;;;15.50;99.90;;;;;;5065951;28;20033;-61
2023/06/27 01:09:22;;;;;;;4.05;2.45;;;15.60;99.90;;;;;;5058675;28;20064;-61
2023/06/27 01:11:54;;;;;;;5.13;2.53;;;15.60;99.90;;;;;;5047967;28;20485;-61
2023/06/27 01:14:23;;;;;;;5.03;2.50;;;15.40;99.90;;;;;;5047317;28;20035;-61
2023/06/27 01:16:51;;;;;;;4.85;2.75;;;15.40;99.90;;;;;;5063979;28;20041;-61
2023/06/27 01:19:21;;;;;;;5.43;2.42;;;15.50;99.90;;;;;;5066396;28;20036;-61
2023/06/27 01:21:52;;;;;;;4.93;2.85;;;15.30;99.90;;;;;;5067397;28;20032;-61
2023/06/27 01:24:18;;;;;;;4.35;2.70;;;15.30;99.90;;;;;;5067172;28;20123;-61
2023/06/27 01:26:44;;;;;;;4.75;2.60;;;15.20;99.90;;;;;;5067063;28;20115;-61
2023/06/27 01:29:11;;;;;;;4.90;2.85;;;15.20;99.90;;;;;;5066797;28;20035;-61
2023/06/27 01:32:00;;;;;;;4.57;2.42;;;15.20;99.90;;;;;;5066356;28;20047;-61
2023/06/27 01:34:37;;;;;;;4.75;2.50;;;15.20;99.90;;;;;;5066866;28;20400;-61
2023/06/27 01:37:10;;;;;;;4.13;2.67;;;15.20;99.90;;;;;;5066348;28;20086;-61
2023/06/27 01:39:44;;;;;;;5.65;2.55;;;15.20;99.90;;;;;;5067049;28;20665;-61
2023/06/27 01:42:16;;;;;;;4.07;2.33;;;15.20;99.90;;;;;;5066179;28;20102;-61
2023/06/27 01:44:45;;;;;;;5.68;2.80;;;15.10;99.90;;;;;;5066778;28;20090;-61
2023/06/27 01:47:11;;;;;;;4.95;2.72;;;15.20;99.90;;;;;;5066450;28;20040;-61
2023/06/27 01:49:37;;;;;;;3.85;2.65;;;15.20;99.90;;;;;;5066802;28;20094;-61
2023/06/27 01:52:03;;;;;;;6.90;2.80;;;15.20;99.90;;;;;;5066535;28;20032;-60
2023/06/27 01:54:28;;;;;;;3.80;2.75;;;15.10;99.90;;;;;;5065969;28;20042;-61
2023/06/27 01:56:54;;;;;;;6.68;2.80;;;15.10;99.90;;;;;;5066313;28;20033;-61
2023/06/27 01:59:19;;;;;;;3.33;2.70;;;15.10;99.90;;;;;;5066836;28;20468;-62
2023/06/27 02:01:45;;;;;;;6.95;2.75;;;15.20;99.90;;;;;;5066454;28;20043;-61
2023/06/27 02:04:10;;;;;;;4.72;2.90;;;15.20;99.90;;;;;;5065202;28;20036;-61
2023/06/27 02:06:36;;;;;;;5.47;2.70;;;15.10;99.90;;;;;;5066548;28;20040;-61
2023/06/27 02:09:02;;;;;;;5.90;2.83;;;15.10;99.90;;;;;;5065901;28;20028;-60
2023/06/27 02:11:28;;;;;;;5.38;2.60;;;15.20;99.90;;;;;;5066259;28;20116;-61
2023/06/27 02:13:53;;;;;;;5.30;2.83;;;15.20;99.90;;;;;;5067030;28;20120;-61
2023/06/27 02:16:19;;;;;;;5.50;2.78;;;15.10;99.90;;;;;;5060687;28;20140;-61
2023/06/27 02:18:44;;;;;;;8.75;2.70;;;15.00;99.90;;;;;;5066446;28;20027;-61
2023/06/27 02:21:10;;;;;;;4.78;2.50;;;15.00;99.90;;;;;;5065970;28;20050;-60
2023/06/27 02:23:36;;;;;;;6.75;2.90;;;15.00;99.90;;;;;;5066634;28;20056;-61
2023/06/27 02:26:03;;;;;;;3.50;2.25;;;15.20;99.90;;;;;;5058809;28;20119;-60
2023/06/27 02:28:29;;;;;;;8.52;3.33;;;15.10;99.90;;;;;;5063812;28;20435;-61
2023/06/27 02:30:55;;;;;;;5.82;2.70;;;15.10;99.90;;;;;;5066412;28;20024;-62
2023/06/27 02:33:20;;;;;;;8.73;3.38;;;15.10;99.90;;;;;;5066292;28;20532;-61
2023/06/27 02:35:46;;;;;;;8.40;3.25;;;15.20;99.90;;;;;;5066597;28;20609;-61
2023/06/27 02:38:12;;;;;;;5.65;2.90;;;15.10;99.90;;;;;;5050418;28;20017;-60
2023/06/27 02:40:37;;;;;;;10.55;3.30;;;15.20;99.90;;;;;;5066043;28;20116;-60
2023/06/27 02:43:04;;;;;;;7.35;2.80;;;15.20;99.90;;;;;;5066030;28;20485;-60
2023/06/27 02:45:30;;;;;;;8.73;3.10;;;15.20;99.90;;;;;;5067413;28;20480;-60
2023/06/27 02:47:55;;;;;;;4.93;3.00;;;15.20;99.90;;;;;;5065285;28;20036;-60
2023/06/27 02:50:21;;;;;;;6.93;3.55;;;15.40;99.90;;;;;;5065715;28;20037;-61
2023/06/27 02:52:47;;;;;;;5.70;3.38;;;15.40;99.90;;;;;;5066125;28;20032;-61
2023/06/27 02:55:12;;;;;;;5.28;3.28;;;15.40;99.90;;;;;;5065256;28;20043;-61
2023/06/27 02:57:38;;;;;;;7.72;3.60;;;15.40;99.90;;;;;;5066515;28;20035;-60
2023/06/27 03:00:05;;;;;;;8.63;3.55;;;15.40;99.90;;;;;;5064878;28;20036;-60
2023/06/27 03:02:31;;;;;;;6.10;3.33;;;15.40;99.90;;;;;;5063331;28;20124;-61
2023/06/27 03:04:56;;;;;;;6.43;3.13;;;15.30;99.90;;;;;;5065698;28;20120;-61
2023/06/27 03:07:22;;;;;;;8.50;3.70;;;15.30;99.90;;;;;;5065541;28;20037;-61
2023/06/27 03:09:47;;;;;;;7.72;3.55;;;15.40;99.90;;;;;;5060445;28;20112;-61
2023/06/27 03:12:13;;;;;;;7.32;3.35;;;15.50;99.90;;;;;;5045507;28;20049;-60
2023/06/27 03:14:38;;;;;;;8.20;3.78;;;15.50;99.90;;;;;;5045779;28;20040;-61
2023/06/27 03:17:04;;;;;;;11.15;3.88;;;15.60;99.90;;;;;;5062154;28;20051;-60
2023/06/27 03:19:30;;;;;;;10.02;3.75;;;15.60;99.90;;;;;;5065518;28;20042;-61
2023/06/27 03:21:55;;;;;;;9.45;3.80;;;15.50;99.90;;;;;;5064865;28;20384;-60
2023/06/27 03:24:21;;;;;;;11.32;3.80;;;15.60;99.90;;;;;;5065319;28;20040;-61
2023/06/27 03:26:46;;;;;;;11.20;3.63;;;15.60;99.90;;;;;;5065356;28;20037;-61
2023/06/27 03:29:12;;;;;;;8.77;3.90;;;15.60;99.90;;;;;;5065352;28;20047;-61
2023/06/27 03:31:37;;;;;;;10.77;4.50;;;15.70;99.90;;;;;;5061299;28;20037;-61
2023/06/27 03:34:03;;;;;;;12.50;4.00;;;15.80;99.90;;;;;;5061180;28;20120;-60
2023/06/27 03:36:33;;;;;;;7.90;4.20;;;15.70;99.90;;;;;;5065566;28;20120;-61
2023/06/27 03:38:59;;;;;;;11.00;3.88;;;15.80;99.90;;;;;;5065842;28;20500;-61
2023/06/27 03:41:24;;;;;;;10.75;4.05;;;15.80;99.90;;;;;;5065058;28;20035;-61
2023/06/27 03:43:50;;;;;;;11.70;3.85;;;15.90;99.90;;;;;;5064988;28;20392;-61
2023/06/27 03:46:16;;;;;;;12.13;4.30;;;15.90;99.90;;;;;;5065936;28;20029;-61
2023/06/27 03:48:41;;;;;;;10.32;3.92;;;15.90;99.90;;;;;;5065198;28;20371;-61
2023/06/27 03:51:07;;;;;;;9.60;3.85;;;15.90;99.90;;;;;;5064969;28;20021;-60
2023/06/27 03:53:33;;;;;;;7.50;3.70;;;15.90;99.90;;;;;;5062728;28;20380;-61
2023/06/27 03:56:01;;;;;;;11.38;4.00;;;15.90;99.90;;;;;;5052703;28;20025;-61
2023/06/27 03:58:27;;;;;;;7.63;3.47;;;15.90;99.90;;;;;;5064935;28;20048;-61
2023/06/27 04:00:53;;;;;;;10.90;3.67;;;16.00;99.90;;;;;;5064967;28;20051;-61
2023/06/27 04:03:19;;;;;;;10.77;4.00;;;16.10;99.90;;;;;;5064767;28;20067;-61
2023/06/27 04:05:45;;;;;;;9.43;4.10;;;16.10;99.90;;;;;;5064618;28;20377;-61
2023/06/27 04:08:10;;;;;;;8.07;3.53;;;16.10;99.90;;;;;;5065444;28;20118;-61
2023/06/27 04:10:36;;;;;;;9.30;3.90;;;16.10;99.90;;;;;;5065967;28;20078;-61
2023/06/27 04:13:01;;;;;;;10.13;3.90;;;16.10;99.90;;;;;;5065271;28;20036;-60
2023/06/27 04:15:27;;;;;;;8.38;4.03;;;16.30;99.90;;;;;;5068266;28;20041;-62
2023/06/27 04:17:52;;;;;;;9.57;3.53;;;16.40;99.90;;;;;;5068403;28;20039;-61
2023/06/27 04:20:18;;;;;;;10.25;3.85;;;16.30;99.90;;;;;;5068391;28;20048;-61
2023/06/27 04:22:44;;;;;;;11.57;3.95;;;16.30;99.90;;;;;;5069205;28;20035;-61
2023/06/27 04:25:11;;;;;;;11.52;3.70;;;16.50;99.90;;;;;;5066232;28;20039;-61
2023/06/27 04:27:39;;;;;;;12.05;3.95;;;16.60;99.90;;;;;;5057014;28;20044;-61
2023/06/27 04:30:05;;;;;;;6.63;3.42;;;16.70;99.90;;;;;;5048211;28;20448;-61
2023/06/27 04:32:33;;;;;;;8.15;3.33;;;16.80;99.90;;;;;;5068043;28;20060;-61
2023/06/27 04:34:59;;;;;;;9.38;3.75;;;16.90;99.90;;;;;;5068056;28;20240;-61
2023/06/27 04:37:24;;;;;;;6.78;3.20;;;17.00;99.90;;;;;;5067465;28;20052;-61
2023/06/27 04:39:53;;;;;;;9.15;3.88;;;16.90;99.90;;;;;;5068521;28;20119;-61
2023/06/27 04:42:18;;;;;;;11.15;3.85;;;16.90;99.90;;;;;;5067729;28;20029;-61
2023/06/27 04:44:44;;;;;;;9.90;3.70;;;17.00;99.90;;;;;;5068104;28;20454;-61
2023/06/27 04:47:10;;;;;;;10.82;4.57;;;17.00;99.90;;;;;;5068975;28;20211;-61
2023/06/27 04:49:35;;;;;;;11.63;4.00;;;17.00;99.90;;;;;;5067648;28;20032;-61
2023/06/27 04:52:01;;;;;;;10.52;3.67;;;17.10;99.90;;;;;;5068029;28;20086;-61
2023/06/27 04:54:27;;;;;;;10.35;3.60;;;17.00;99.90;;;;;;5067821;28;20710;-61
2023/06/27 04:56:52;;;;;;;10.98;3.80;;;17.00;99.90;;;;;;5067706;28;20052;-61
2023/06/27 04:59:19;;;;;;;12.10;4.35;;;17.00;99.90;;;;;;5066154;28;20481;-61
2023/06/27 05:01:45;;;;;;;12.05;4.10;;;17.10;99.90;;;;;;5061341;28;20522;-61
2023/06/27 05:04:10;;;;;;;9.88;4.00;;;17.10;99.90;;;;;;5067797;28;20036;-61
2023/06/27 05:06:36;;;;;;;11.02;4.10;;;17.20;99.90;;;;;;5067457;28;20115;-61
2023/06/27 05:09:03;;;;;;;8.73;3.70;;;17.20;99.90;;;;;;5067287;28;20391;-59
2023/06/27 05:11:30;;;;;;;10.93;4.05;;;17.10;99.90;;;;;;5056681;28;20792;-61
2023/06/27 05:13:55;;;;;;;14.75;4.18;;;17.10;99.90;;;;;;5047943;28;20489;-61
2023/06/27 05:16:22;;;;;;;11.57;3.65;;;17.10;99.90;;;;;;5060007;28;20121;-61
2023/06/27 05:18:48;;;;;;;14.55;4.32;;;17.20;99.90;;;;;;5067837;28;20048;-61
2023/06/27 05:21:13;;;;;;;9.90;3.55;;;17.10;99.90;;;;;;5066029;28;20117;-61
2023/06/27 05:23:39;;;;;;;13.85;4.35;;;17.10;99.90;;;;;;5047367;28;20032;-61
2023/06/27 05:26:04;;;;;;;11.90;3.97;;;17.20;99.90;;;;;;5046235;28;20045;-61
2023/06/27 05:28:30;;;;;;;12.38;4.60;;;17.10;99.90;;;;;;5047440;28;20025;-61
2023/06/27 05:30:57;;;;;;;10.90;4.13;;;17.10;99.90;;;;;;5054129;28;20033;-61
2023/06/27 05:33:22;;;;;;;13.10;3.92;;;17.10;99.90;;;;;;5066092;28;20036;-61
2023/06/27 05:35:48;;;;;;;11.13;4.20;;;17.00;99.90;;;;;;5067040;28;20025;-61
2023/06/27 05:38:15;;;;;;;10.75;4.28;;;17.10;99.90;;;;;;5065899;28;20449;-61
2023/06/27 05:40:41;;;;;;;10.38;4.05;;;17.10;99.90;;;;;;5066820;28;20418;-61
2023/06/27 05:43:06;;;;;;;11.85;4.35;;;16.90;99.90;;;;;;5067006;28;20053;-61
2023/06/27 05:45:32;;;;;;;9.75;4.20;;;17.00;99.90;;;;;;5067627;28;20020;-61
2023/06/27 05:47:57;;;;;;;13.90;4.32;;;17.00;99.90;;;;;;5067338;28;20048;-61
2023/06/27 05:50:23;;;;;;;11.38;4.30;;;17.00;99.90;;;;;;5066505;28;20134;-61
2023/06/27 05:52:48;;;;;;;11.18;4.10;;;17.20;99.90;;;;;;5066826;28;20029;-61
2023/06/27 05:55:14;;;;;;;16.02;4.43;;;17.30;99.90;;;;;;5065073;28;20040;-61
2023/06/27 05:57:40;;;;;;;13.63;4.47;;;17.40;99.90;;;;;;5066880;28;20078;-61
2023/06/27 06:00:10;;;;;;;11.65;4.40;;;17.50;99.90;;;;;;5066574;28;20041;-61
2023/06/27 06:02:41;;;;;;;14.77;4.40;;;17.60;99.90;;;;;;5046975;28;20544;-61
2023/06/27 06:05:07;;;;;;;12.50;4.82;;;17.70;99.90;;;;;;5045938;28;20055;-61
2023/06/27 06:07:32;;;;;;;18.40;4.72;;;17.70;99.90;;;;;;5046539;28;20044;-61
2023/06/27 06:09:58;;;;;;;14.02;4.45;;;17.60;99.90;;;;;;5061487;28;20058;-61
2023/06/27 06:12:23;;;;;;;16.38;4.85;;;17.70;99.90;;;;;;5065998;28;20048;-62
2023/06/27 06:14:49;;;;;;;14.20;5.05;;;17.80;99.90;;;;;;5066486;28;20403;-61
2023/06/27 06:17:14;;;;;;;13.40;4.78;;;17.90;99.90;;;;;;5065357;28;20461;-61
2023/06/27 06:19:40;;;;;;;14.95;4.20;;;17.90;99.90;;;;;;5066625;28;20389;-62
2023/06/27 06:22:06;;;;;;;14.93;5.25;;;18.00;99.90;;;;;;5065645;28;20032;-61
2023/06/27 06:24:32;;;;;;;20.48;4.97;;;18.10;99.90;;;;;;5066725;28;20039;-62
2023/06/27 06:26:57;;;;;;;13.10;4.40;;;18.20;99.90;;;;;;5066354;28;20141;-61
2023/06/27 06:29:23;;;;;;;13.38;5.30;;;18.10;99.90;;;;;;5065261;28;20573;-61
2023/06/27 06:31:48;;;;;;;11.10;5.15;;;18.10;99.90;;;;;;5066196;28;20165;-61
2023/06/27 06:34:14;;;;;;;15.13;4.53;;;18.10;99.90;;;;;;5065948;28;20040;-61
2023/06/27 06:36:39;;;;;;;17.13;5.22;;;18.30;99.90;;;;;;5065235;28;20039;-61
2023/06/27 06:39:05;;;;;;;16.77;4.80;;;18.20;99.90;;;;;;5065299;28;20032;-61
2023/06/27 06:41:30;;;;;;;15.02;4.82;;;18.10;99.90;;;;;;5066103;28;20042;-61
2023/06/27 06:43:56;;;;;;;15.27;4.93;;;18.10;99.90;;;;;;5066078;28;20150;-62
2023/06/27 06:46:23;;;;;;;16.70;5.30;;;18.30;99.90;;;;;;5065056;28;20079;-61
2023/06/27 06:48:49;;;;;;;18.13;5.18;;;18.40;99.90;;;;;;5066072;28;20040;-61
2023/06/27 06:51:14;;;;;;;14.80;5.00;;;18.50;99.90;;;;;;5048406;28;20033;-61
2023/06/27 06:53:40;;;;;;;17.92;5.20;;;18.60;99.90;;;;;;5046229;28;20473;-62
2023/06/27 06:56:05;;;;;;;13.68;4.80;;;18.70;99.90;;;;;;5053936;28;20385;-61
2023/06/27 06:58:31;;;;;;;15.13;4.60;;;18.80;99.90;;;;;;5065999;28;20036;-62
2023/06/27 07:00:56;;;;;;;17.10;5.05;;;18.90;99.90;;;;;;5065092;28;20135;-62
2023/06/27 07:03:22;;;;;;;15.00;5.10;;;19.20;99.90;;;;;;5065571;28;20033;-61
2023/06/27 07:05:48;;;;;;;19.85;6.43;;;19.30;99.90;;;;;;5066027;28;20052;-62
2023/06/27 07:08:13;;;;;;;21.85;5.85;;;19.40;99.90;;;;;;5065694;28;20083;-61
2023/06/27 07:10:39;;;;;;;13.13;4.82;;;19.60;99.90;;;;;;5064352;28;20025;-61
2023/06/27 07:13:05;;;;;;;18.92;4.80;;;19.60;99.90;;;;;;5064863;28;20083;-62
2023/06/27 07:15:32;;;;;;;11.15;4.22;;;19.60;99.90;;;;;;5066879;28;20032;-62
2023/06/27 07:17:59;;;;;;;18.90;5.20;;;19.80;99.90;;;;;;5065929;28;20063;-62
2023/06/27 07:20:25;;;;;;;19.92;5.57;;;19.70;99.90;;;;;;5065503;28;20516;-61
2023/06/27 07:22:51;;;;;;;14.63;4.70;;;19.70;99.90;;;;;;5065348;28;20068;-61
2023/06/27 07:25:17;;;;;;;13.98;4.70;;;19.60;99.90;;;;;;5065304;28;20244;-62
2023/06/27 07:27:43;;;;;;;16.45;4.68;;;19.70;99.90;;;;;;5065670;28;20032;-62
2023/06/27 07:30:10;;;;;;;15.77;4.97;;;19.90;99.90;;;;;;5065428;28;20656;-61
2023/06/27 07:32:35;;;;;;;17.13;4.63;;;19.90;99.90;;;;;;5046755;28;20369;-62
2023/06/27 07:35:01;;;;;;;14.90;4.50;;;19.90;99.90;;;;;;5064802;28;20036;-62
2023/06/27 07:37:27;;;;;;;17.98;4.65;;;20.10;99.90;;;;;;5063239;28;20059;-62
2023/06/27 07:39:52;;;;;;;19.10;4.53;;;20.20;99.90;;;;;;5065230;28;20033;-61
2023/06/27 07:42:18;;;;;;;13.93;4.20;;;20.10;99.90;;;;;;5065039;28;20115;-62
2023/06/27 07:44:44;;;;;;;16.83;4.68;;;20.20;99.90;;;;;;5060865;28;20036;-62
2023/06/27 07:47:09;;;;;;;16.05;4.68;;;20.00;99.90;;;;;;5063731;28;20037;-62
2023/06/27 07:49:37;;;;;;;18.35;4.72;;;20.10;99.90;;;;;;5069744;28;20473;-62
2023/06/27 07:52:05;;;;;;;19.02;5.28;;;20.00;99.90;;;;;;5068979;28;20024;-61
2023/06/27 07:54:31;;;;;;;15.88;4.82;;;20.00;99.90;;;;;;5067506;28;20040;-61
2023/06/27 07:56:57;;;;;;;18.80;4.72;;;;;;;;;;5066740;28;20033;-62
2023/06/27 07:59:23;;;;;;;14.18;4.32;;;20.40;99.90;;;;;;5067587;28;20105;-62
2023/06/27 08:01:48;;;;;;;20.10;5.40;;;20.70;99.90;;;;;;5066066;28;20070;-62
2023/06/27 08:04:15;;;;;;;12.20;4.40;;;20.60;99.90;;;;;;5065385;28;20392;-62
2023/06/27 08:06:44;;;;;;;15.23;4.75;;;20.60;99.90;;;;;;5055688;28;20184;-62
2023/06/27 08:09:09;;;;;;;14.30;4.13;;;20.70;99.90;;;;;;5055961;28;20045;-61
2023/06/27 08:11:35;;;;;;;12.48;3.97;;;20.60;99.90;;;;;;5048538;28;20052;-62
2023/06/27 08:14:01;;;;;;;13.00;3.97;;;20.60;99.90;;;;;;5049425;28;20029;-62
2023/06/27 08:16:26;;;;;;;17.17;4.65;;;20.60;99.90;;;;;;5066316;28;20033;-61
2023/06/27 08:18:52;;;;;;;20.30;4.85;;;20.70;99.90;;;;;;5068836;28;20365;-61
2023/06/27 08:21:18;;;;;;;11.55;4.45;;;20.70;99.90;;;;;;5067247;28;20032;-61
2023/06/27 08:23:44;;;;;;;13.23;4.47;;;20.70;99.90;;;;;;5068793;28;20054;-62
2023/06/27 08:26:14;;;;;;;15.48;4.40;;;20.70;99.90;;;;;;5067720;28;20029;-61
2023/06/27 08:28:40;;;;;;;15.73;4.68;;;20.60;99.90;;;;;;5069234;28;20103;-62
2023/06/27 08:31:05;;;;;;;22.13;5.00;;;20.80;99.90;;;;;;5068268;28;20168;-61
2023/06/27 08:33:31;;;;;;;15.15;3.97;;;21.20;99.90;;;;;;5056797;28;20040;-62
2023/06/27 08:35:56;;;;;;;14.10;3.78;;;21.30;99.90;;;;;;5048061;28;20032;-62
2023/06/27 08:38:22;;;;;;;9.93;3.58;;;21.50;99.90;;;;;;5050943;28;20025;-61
2023/06/27 08:40:53;;;;;;;10.70;3.45;;;21.60;99.90;;;;;;5068225;28;20029;-62
2023/06/27 08:43:20;;;;;;;14.02;3.58;;;21.50;99.90;;;;;;5067581;28;20129;-61
2023/06/27 08:45:47;;;;;;;13.63;3.45;;;21.40;99.90;;;;;;5069095;28;20553;-61
2023/06/27 08:48:16;;;;;;;13.50;3.10;;;21.20;99.90;;;;;;5067773;28;20068;-61
2023/06/27 08:50:43;;;;;;;13.93;3.38;;;21.40;99.90;;;;;;5068174;28;20033;-62
2023/06/27 08:53:13;;;;;;;9.00;2.80;;;21.70;99.90;;;;;;5067591;28;20032;-61
2023/06/27 08:56:02;;;;;;;9.73;2.75;;;21.80;99.90;;;;;;5066977;28;20032;-61
2023/06/27 08:58:31;;;;;;;9.93;3.20;;;21.80;99.90;;;;;;5067800;28;20107;-62
2023/06/27 09:00:57;;;;;;;13.65;3.40;;;21.80;99.90;;;;;;5067282;28;20028;-63
2023/06/27 09:03:24;;;;;;;14.68;3.40;;;22.00;99.90;;;;;;5066245;28;20032;-62
2023/06/27 09:05:50;;;;;;;10.68;3.53;;;22.00;99.90;;;;;;5067155;28;20040;-62
2023/06/27 09:08:17;;;;;;;13.13;3.17;;;22.00;99.90;;;;;;5067539;28;20036;-62
2023/06/27 09:10:44;;;;;;;9.50;3.22;;;22.00;99.90;;;;;;5067650;28;20036;-62
2023/06/27 09:13:09;;;;;;;9.35;2.90;;;22.00;99.90;;;;;;5067412;28;20048;-62
2023/06/27 09:15:35;;;;;;;5.82;1.80;;;22.00;99.90;;;;;;5067501;28;20036;-62
2023/06/27 09:18:00;;;;;;;7.57;2.17;;;22.00;99.90;;;;;;5066942;28;20033;-61
2023/06/27 09:20:26;;;;;;;8.85;2.38;;;21.80;99.90;;;;;;5067368;28;20029;-62
2023/06/27 09:22:54;;;;;;;9.02;2.50;;;21.60;99.90;;;;;;5067622;28;20119;-62
2023/06/27 09:25:24;;;;;;;8.75;2.30;;;21.60;99.90;;;;;;5066411;28;20560;-62
2023/06/27 09:27:50;;;;;;;8.43;2.28;;;21.60;99.90;;;;;;5066602;28;20385;-62
2023/06/27 09:30:16;;;;;;;9.32;2.40;;;21.70;99.90;;;;;;5066976;28;20028;-62
2023/06/27 09:32:57;;;;;;;11.57;3.00;;;21.80;99.90;;;;;;5067371;28;20029;-63
2023/06/27 09:35:24;;;;;;;9.85;2.75;;;21.90;99.90;;;;;;5067474;28;20492;-61
2023/06/27 09:38:05;;;;;;;6.43;2.63;;;22.00;99.90;;;;;;5067047;28;20060;-63
2023/06/27 09:40:35;;;;;;;11.93;2.80;;;22.20;99.90;;;;;;5065831;28;20033;-61
2023/06/27 09:43:00;;;;;;;8.48;2.88;;;21.80;99.90;;;;;;5066862;28;20085;-63
2023/06/27 09:45:29;;;;;;;8.82;2.70;;;21.80;99.90;;;;;;5066556;28;20516;-62
2023/06/27 09:47:55;;;;;;;8.40;2.80;;;22.00;99.90;;;;;;5067503;28;20055;-63
2023/06/27 09:50:28;;;;;;;12.07;2.72;;;22.20;99.90;;;;;;5065934;28;20033;-62
2023/06/27 09:52:59;;;;;;;9.35;2.58;;;22.10;99.90;;;;;;5067314;28;20040;-61
2023/06/27 09:55:25;;;;;;;9.02;2.75;;;22.20;99.90;;;;;;5066031;28;20040;-61
2023/06/27 09:57:51;;;;;;;6.32;2.30;;;22.20;99.90;;;;;;5066963;28;20100;-62
2023/06/27 10:00:20;;;;;;;8.55;2.33;;;22.40;99.90;;;;;;5064960;28;20032;-62
2023/06/27 10:02:49;;;;;;;12.63;2.90;;;22.50;99.90;;;;;;5047165;28;20064;-63
2023/06/27 10:05:16;;;;;;;9.38;2.60;;;22.60;99.90;;;;;;5046028;28;20528;-62
2023/06/27 10:07:43;;;;;;;9.10;2.65;;;22.60;99.90;;;;;;5046848;28;20507;-63
2023/06/27 10:10:10;;;;;;;11.63;2.65;;;22.70;99.90;;;;;;5063467;28;20540;-61
2023/06/27 10:12:36;;;;;;;7.22;2.60;;;22.70;99.90;;;;;;5054525;28;20116;-62
2023/06/27 10:15:03;;;;;;;8.85;2.40;;;22.60;99.90;;;;;;5047352;28;20123;-61
2023/06/27 10:17:29;;;;;;;7.82;2.45;;;22.50;99.90;;;;;;5066996;28;20037;-63
2023/06/27 10:19:55;;;;;;;7.43;2.30;;;22.40;99.90;;;;;;5066726;28;20028;-62
2023/06/27 10:22:26;;;;;;;10.02;3.20;;;22.10;99.90;;;;;;5065532;28;20216;-61
2023/06/27 10:24:56;;;;;;;8.20;2.53;;;22.10;99.90;;;;;;5067820;28;20271;-62
2023/06/27 10:27:25;;;;;;;11.63;2.90;;;22.10;99.90;;;;;;5066057;28;20050;-61
2023/06/27 10:29:50;;;;;;;8.93;2.70;;;21.90;99.90;;;;;;5064858;28;20028;-61
2023/06/27 10:32:20;;;;;;;10.40;2.83;;;21.80;99.90;;;;;;5065620;28;20040;-61
2023/06/27 10:34:46;;;;;;;11.68;2.50;;;21.50;99.90;;;;;;5065610;28;20028;-61
2023/06/27 10:37:24;;;;;;;10.88;2.58;;;21.60;99.90;;;;;;5066095;28;20108;-61
2023/06/27 10:39:57;;;;;;;10.20;2.60;;;21.60;99.90;;;;;;5066335;28;20523;-61
2023/06/27 10:42:22;;;;;;;9.18;2.83;;;21.60;99.90;;;;;;5065600;28;20028;-61
2023/06/27 10:45:04;;;;;;;12.43;2.70;;;21.70;99.90;;;;;;5065311;28;20660;-61
2023/06/27 10:47:38;;;;;;;10.27;2.80;;;21.70;99.90;;;;;;5053167;28;20114;-61
2023/06/27 10:50:15;;;;;;;8.95;2.50;;;21.90;99.90;;;;;;5065746;28;20115;-61
2023/06/27 10:52:59;;;;;;;10.18;2.33;;;22.00;99.90;;;;;;5066212;28;20063;-61
2023/06/27 10:55:29;;;;;;;8.15;2.63;;;21.90;99.90;;;;;;5062226;28;20041;-61
2023/06/27 10:58:26;;;;;;;9.63;2.40;;;22.10;99.90;;;;;;5066048;28;20028;-62
2023/06/27 11:00:52;;;;;;;10.95;2.80;;;22.10;99.90;;;;;;5057203;28;20374;-61
2023/06/27 11:03:19;;;;;;;6.13;2.42;;;22.10;99.90;;;;;;5065369;28;20036;-61
2023/06/27 11:05:54;;;;;;;10.80;2.70;;;22.30;99.90;;;;;;5065652;28;20032;-61
2023/06/27 11:08:21;;;;;;;9.48;2.88;;;22.40;99.90;;;;;;5064986;28;20073;-61
2023/06/27 11:10:51;;;;;;;8.93;2.10;;;22.30;99.90;;;;;;5065839;28;20028;-61
2023/06/27 11:13:22;;;;;;;9.15;2.42;;;22.50;99.90;;;;;;5065175;28;20023;-62
2023/06/27 11:15:49;;;;;;;12.55;2.65;;;22.50;99.90;;;;;;5065746;28;20119;-62
2023/06/27 11:18:16;;;;;;;8.45;2.35;;;22.50;99.90;;;;;;5061110;28;20036;-61
2023/06/27 11:20:42;;;;;;;11.55;2.78;;;22.50;99.90;;;;;;5065754;28;20157;-61
2023/06/27 11:23:08;;;;;;;10.35;2.65;;;22.50;99.90;;;;;;5067725;28;20108;-61
2023/06/27 11:25:38;;;;;;;10.30;2.75;;;22.50;99.90;;;;;;5069384;28;20437;-62
2023/06/27 11:28:05;;;;;;;8.48;2.25;;;22.30;99.90;;;;;;5069709;28;20093;-63
2023/06/27 11:30:31;;;;;;;6.63;2.20;;;22.20;99.90;;;;;;5068564;28;20499;-62
2023/06/27 11:32:57;;;;;;;7.75;2.05;;;22.30;99.90;;;;;;5069322;28;20047;-62
2023/06/27 11:35:23;;;;;;;7.50;2.15;;;22.40;99.90;;;;;;5069294;28;20055;-61
2023/06/27 11:37:54;;;;;;;7.50;2.08;;;22.10;99.90;;;;;;5070140;28;20407;-62
2023/06/27 11:40:23;;;;;;;5.03;1.70;;;22.20;99.90;;;;;;5058970;28;20049;-62
2023/06/27 11:42:49;;;;;;;7.35;2.00;;;22.30;99.90;;;;;;5057368;28;20035;-62
2023/06/27 11:45:15;;;;;;;6.32;2.30;;;22.40;99.90;;;;;;5068528;28;20356;-63
2023/06/27 11:47:40;;;;;;;6.45;2.08;;;22.60;99.90;;;;;;5069598;28;20123;-63
2023/06/27 11:50:11;;;;;;;3.28;1.63;;;22.70;99.90;;;;;;5069414;28;20029;-61
2023/06/27 11:52:37;;;;;;;4.75;1.52;;;22.80;99.90;;;;;;5069525;28;20389;-62
2023/06/27 11:55:05;;;;;;;6.47;1.80;;;22.70;99.90;;;;;;5068440;28;20419;-61
2023/06/27 11:57:44;;;;;;;3.85;1.48;;;22.80;99.90;;;;;;5066775;28;20029;-62
2023/06/27 12:00:23;;;;;;;6.93;1.75;;;23.10;99.90;;;;;;5068639;28;20024;-61
2023/06/27 12:02:57;;;;;;;6.10;1.70;;;22.90;99.90;;;;;;5068778;28;20549;-61
2023/06/27 12:05:24;;;;;;;4.72;1.38;;;22.70;99.90;;;;;;5067024;28;20492;-61
2023/06/27 12:08:03;;;;;;;6.57;1.73;;;23.00;99.90;;;;;;5069131;28;20546;-62
2023/06/27 12:10:34;;;;;;;5.78;1.80;;;23.10;99.90;;;;;;5048664;28;20287;-62
2023/06/27 12:13:03;;;;;;;6.03;1.73;;;23.20;99.90;;;;;;5048861;28;20443;-62
2023/06/27 12:15:29;;;;;;;7.13;2.03;;;23.30;99.90;;;;;;5053647;28;20028;-62
2023/06/27 12:17:59;;;;;;;4.93;1.70;;;23.40;99.90;;;;;;5069083;28;20040;-62
2023/06/27 12:20:26;;;;;;;6.63;1.75;;;23.50;99.90;;;;;;5068125;28;20032;-61
2023/06/27 12:22:51;;;;;;;6.05;1.55;;;23.30;99.90;;;;;;5069164;28;20671;-62
2023/06/27 12:25:17;;;;;;;5.97;1.80;;;23.30;99.90;;;;;;5066036;28;20063;-61
2023/06/27 12:27:43;;;;;;;6.47;2.00;;;23.20;99.90;;;;;;5068182;28;20037;-62
2023/06/27 12:30:10;;;;;;;7.00;2.05;;;22.70;99.90;;;;;;5066541;28;20040;-61
2023/06/27 12:32:36;;;;;;;6.15;1.65;;;22.40;99.90;;;;;;5068926;28;20036;-62
2023/06/27 12:35:02;;;;;;;5.78;2.17;;;22.70;99.90;;;;;;5065846;28;20059;-61
2023/06/27 12:37:29;;;;;;;5.07;2.08;;;23.00;99.90;;;;;;5068720;28;20048;-61
2023/06/27 12:39:55;;;;;;;6.80;2.05;;;23.30;99.90;;;;;;5068506;28;20029;-62
2023/06/27 12:42:20;;;;;;;5.65;1.65;;;23.30;99.90;;;;;;5067512;28;20485;-61